sensor_id;sensor_type;location;lat;lon;timestamp;pressure;altitude;pressure_sealevel;temperature;humidity
66273;BME280;58450;52.150;4.466;2024-02-16T17:41:14;101896.13;;;9.72;100.00
66273;BME280;58450;52.150;4.466;2024-02-16T17:45:50;65276.53;;;-147.83;100.00
66273;BME280;58450;52.150;4.466;2024-02-16T17:50:18;65276.53;;;-147.83;100.00
66273;BME280;58450;52.150;4.466;2024-02-16T17:54:47;65276.53;;;-147.83;100.00
66273;BME280;58450;52.150;4.466;2024-02-16T17:59:17;65276.53;;;-147.83;100.00
66273;BME280;58450;52.150;4.466;2024-02-16T18:03:46;65276.53;;;-147.83;100.00
66273;BME280;58450;52.150;4.466;2024-02-16T18:08:14;65276.53;;;-147.83;100.00
66273;BME280;58450;52.150;4.466;2024-02-16T18:12:43;65276.53;;;-147.83;100.00
66273;BME280;58450;52.150;4.466;2024-02-16T18:17:13;65276.53;;;-147.83;100.00
66273;BME280;58450;52.150;4.466;2024-02-16T19:07:31;102057.97;;;9.20;100.00
66273;BME280;58450;52.150;4.466;2024-02-16T19:09:58;102058.84;;;9.11;100.00
66273;BME280;58450;52.150;4.466;2024-02-16T19:12:25;102048.88;;;9.03;100.00
66273;BME280;58450;52.150;4.466;2024-02-16T19:14:52;102056.94;;;8.93;100.00
66273;BME280;58450;52.150;4.466;2024-02-16T19:17:20;102062.34;;;8.83;100.00
66273;BME280;58450;52.150;4.466;2024-02-16T19:19:47;102072.66;;;8.78;100.00
66273;BME280;58450;52.150;4.466;2024-02-16T19:22:14;102061.22;;;8.76;100.00
66273;BME280;58450;52.150;4.466;2024-02-16T19:24:42;102065.59;;;8.77;100.00
66273;BME280;58450;52.150;4.466;2024-02-16T19:27:09;102074.94;;;8.73;100.00
66273;BME280;58450;52.150;4.466;2024-02-16T19:29:37;102083.69;;;8.75;100.00
66273;BME280;58450;52.150;4.466;2024-02-16T19:32:04;102083.69;;;8.75;100.00
66273;BME280;58450;52.150;4.466;2024-02-16T19:34:31;102091.19;;;8.71;100.00
66273;BME280;58450;52.150;4.466;2024-02-16T19:37:00;102098.69;;;8.68;100.00
66273;BME280;58450;52.150;4.466;2024-02-16T19:39:27;102101.50;;;8.76;100.00
66273;BME280;58450;52.150;4.466;2024-02-16T19:41:55;102100.22;;;8.80;100.00
66273;BME280;58450;52.150;4.466;2024-02-16T19:44:24;102103.47;;;8.74;100.00
66273;BME280;58450;52.150;4.466;2024-02-16T19:46:53;102104.75;;;8.80;100.00
66273;BME280;58450;52.150;4.466;2024-02-16T19:49:21;102104.59;;;8.81;100.00
66273;BME280;58450;52.150;4.466;2024-02-16T19:51:49;102109.66;;;8.84;100.00
66273;BME280;58450;52.150;4.466;2024-02-16T19:54:16;102122.94;;;8.86;100.00
66273;BME280;58450;52.150;4.466;2024-02-16T19:56:44;102117.03;;;8.82;100.00
66273;BME280;58450;52.150;4.466;2024-02-16T19:59:14;102118.56;;;8.85;100.00
66273;BME280;58450;52.150;4.466;2024-02-16T20:01:42;102129.75;;;8.80;100.00
66273;BME280;58450;52.150;4.466;2024-02-16T20:04:09;102139.06;;;8.76;100.00
66273;BME280;58450;52.150;4.466;2024-02-16T20:06:36;102145.72;;;8.72;100.00
66273;BME280;58450;52.150;4.466;2024-02-16T20:09:04;102143.03;;;8.72;100.00
66273;BME280;58450;52.150;4.466;2024-02-16T20:11:31;102150.94;;;8.74;100.00
66273;BME280;58450;52.150;4.466;2024-02-16T20:13:59;102150.94;;;8.74;100.00
66273;BME280;58450;52.150;4.466;2024-02-16T20:16:28;102162.22;;;8.77;100.00
66273;BME280;58450;52.150;4.466;2024-02-16T20:18:56;102161.25;;;8.78;100.00
66273;BME280;58450;52.150;4.466;2024-02-16T20:21:23;102165.06;;;8.85;100.00
66273;BME280;58450;52.150;4.466;2024-02-16T20:23:50;102168.03;;;8.82;100.00
66273;BME280;58450;52.150;4.466;2024-02-16T20:26:22;102171.84;;;8.90;100.00
66273;BME280;58450;52.150;4.466;2024-02-16T20:28:49;102172.94;;;8.87;100.00
66273;BME280;58450;52.150;4.466;2024-02-16T20:31:16;102173.81;;;8.87;100.00
66273;BME280;58450;52.150;4.466;2024-02-16T20:33:46;102178.16;;;8.98;100.00
66273;BME280;58450;52.150;4.466;2024-02-16T20:36:13;102179.31;;;8.96;100.00
66273;BME280;58450;52.150;4.466;2024-02-16T20:38:41;102189.78;;;8.99;100.00
66273;BME280;58450;52.150;4.466;2024-02-16T20:41:08;102198.53;;;9.01;100.00
66273;BME280;58450;52.150;4.466;2024-02-16T20:43:36;102199.53;;;9.00;100.00
66273;BME280;58450;52.150;4.466;2024-02-16T20:46:04;102198.09;;;8.96;100.00
66273;BME280;58450;52.150;4.466;2024-02-16T20:48:33;102209.28;;;9.01;100.00
66273;BME280;58450;52.150;4.466;2024-02-16T20:51:02;102200.06;;;9.13;100.00
66273;BME280;58450;52.150;4.466;2024-02-16T20:53:29;102207.97;;;9.15;100.00
66273;BME280;58450;52.150;4.466;2024-02-16T20:55:56;102213.22;;;9.16;100.00
66273;BME280;58450;52.150;4.466;2024-02-16T20:58:23;102212.09;;;9.09;100.00
66273;BME280;58450;52.150;4.466;2024-02-16T21:00:50;102225.94;;;9.14;100.00
66273;BME280;58450;52.150;4.466;2024-02-16T21:03:17;102222.25;;;9.15;100.00
66273;BME280;58450;52.150;4.466;2024-02-16T21:05:45;102223.78;;;9.18;100.00
66273;BME280;58450;52.150;4.466;2024-02-16T21:08:14;102222.69;;;9.21;100.00
66273;BME280;58450;52.150;4.466;2024-02-16T21:10:41;102232.00;;;9.16;100.00
66273;BME280;58450;52.150;4.466;2024-02-16T21:13:08;102221.69;;;9.12;100.00
66273;BME280;58450;52.150;4.466;2024-02-16T21:15:35;102226.34;;;9.10;100.00
66273;BME280;58450;52.150;4.466;2024-02-16T21:18:02;102231.44;;;9.13;100.00
66273;BME280;58450;52.150;4.466;2024-02-16T21:20:30;102241.91;;;9.06;100.00
66273;BME280;58450;52.150;4.466;2024-02-16T21:22:57;102240.06;;;9.07;100.00
66273;BME280;58450;52.150;4.466;2024-02-16T21:25:25;102247.13;;;9.08;100.00
66273;BME280;58450;52.150;4.466;2024-02-16T21:27:52;102250.38;;;9.01;100.00
66273;BME280;58450;52.150;4.466;2024-02-16T21:30:19;102243.03;;;9.04;100.00
66273;BME280;58450;52.150;4.466;2024-02-16T21:32:46;102245.88;;;9.02;100.00
66273;BME280;58450;52.150;4.466;2024-02-16T21:35:16;102243.19;;;9.02;100.00
66273;BME280;58450;52.150;4.466;2024-02-16T21:37:46;102250.53;;;9.00;100.00
66273;BME280;58450;52.150;4.466;2024-02-16T21:40:14;102253.22;;;9.00;100.00
66273;BME280;58450;52.150;4.466;2024-02-16T21:42:44;102251.66;;;9.07;100.00
66273;BME280;58450;52.150;4.466;2024-02-16T21:45:11;102261.97;;;9.02;100.00
66273;BME280;58450;52.150;4.466;2024-02-16T21:47:38;102257.44;;;9.02;100.00
66273;BME280;58450;52.150;4.466;2024-02-16T21:50:06;102260.72;;;9.06;100.00
66273;BME280;58450;52.150;4.466;2024-02-16T21:52:35;102268.06;;;9.04;100.00
66273;BME280;58450;52.150;4.466;2024-02-16T21:55:03;102265.50;;;9.02;100.00
66273;BME280;58450;52.150;4.466;2024-02-16T21:57:30;102268.78;;;9.06;100.00
66273;BME280;58450;52.150;4.466;2024-02-16T21:59:58;102273.84;;;9.09;100.00
66273;BME280;58450;52.150;4.466;2024-02-16T22:02:25;102269.59;;;9.07;100.00
66273;BME280;58450;52.150;4.466;2024-02-16T22:04:53;102283.03;;;9.07;100.00
66273;BME280;58450;52.150;4.466;2024-02-16T22:07:20;102286.00;;;9.13;100.00
66273;BME280;58450;52.150;4.466;2024-02-16T22:09:47;102288.81;;;9.12;100.00
66273;BME280;58450;52.150;4.466;2024-02-16T22:12:14;102277.09;;;9.13;100.00
66273;BME280;58450;52.150;4.466;2024-02-16T22:14:41;102286.44;;;9.19;100.00
66273;BME280;58450;52.150;4.466;2024-02-16T22:17:09;102292.63;;;9.19;100.00
66273;BME280;58450;52.150;4.466;2024-02-16T22:19:36;102300.00;;;9.17;100.00
66273;BME280;58450;52.150;4.466;2024-02-16T22:22:04;102289.13;;;9.19;100.00
66273;BME280;58450;52.150;4.466;2024-02-16T22:24:31;102303.09;;;9.22;100.00
66273;BME280;58450;52.150;4.466;2024-02-16T22:26:58;102302.97;;;9.24;100.00
66273;BME280;58450;52.150;4.466;2024-02-16T22:29:25;102308.06;;;9.27;100.00
66273;BME280;58450;52.150;4.466;2024-02-16T22:31:53;102317.41;;;9.23;100.00
66273;BME280;58450;52.150;4.466;2024-02-16T22:34:21;102315.69;;;9.31;100.00
66273;BME280;58450;52.150;4.466;2024-02-16T22:36:48;102302.00;;;9.25;100.00
66273;BME280;58450;52.150;4.466;2024-02-16T22:39:15;102308.19;;;9.25;100.00
66273;BME280;58450;52.150;4.466;2024-02-16T22:41:43;102322.16;;;9.29;100.00
66273;BME280;58450;52.150;4.466;2024-02-16T22:44:10;102322.03;;;9.30;100.00
66273;BME280;58450;52.150;4.466;2024-02-16T22:46:37;102323.88;;;9.30;100.00
66273;BME280;58450;52.150;4.466;2024-02-16T22:49:04;102325.41;;;9.42;100.00
66273;BME280;58450;52.150;4.466;2024-02-16T22:51:33;102329.53;;;9.46;100.00
66273;BME280;58450;52.150;4.466;2024-02-16T22:54:00;102329.81;;;9.43;100.00
66273;BME280;58450;52.150;4.466;2024-02-16T22:56:27;102327.81;;;9.45;100.00
66273;BME280;58450;52.150;4.466;2024-02-16T22:58:54;102332.91;;;9.49;100.00
66273;BME280;58450;52.150;4.466;2024-02-16T23:01:21;102337.28;;;9.50;100.00
66273;BME280;58450;52.150;4.466;2024-02-16T23:03:48;102334.06;;;9.46;100.00
66273;BME280;58450;52.150;4.466;2024-02-16T23:06:15;102338.72;;;9.54;100.00
66273;BME280;58450;52.150;4.466;2024-02-16T23:08:44;102339.84;;;9.61;100.00
66273;BME280;58450;52.150;4.466;2024-02-16T23:11:11;102338.59;;;9.55;100.00
66273;BME280;58450;52.150;4.466;2024-02-16T23:13:38;102345.66;;;9.56;100.00
66273;BME280;58450;52.150;4.466;2024-02-16T23:16:05;102343.78;;;9.57;100.00
66273;BME280;58450;52.150;4.466;2024-02-16T23:18:36;102354.13;;;9.61;100.00
66273;BME280;58450;52.150;4.466;2024-02-16T23:21:03;102354.41;;;9.58;100.00
66273;BME280;58450;52.150;4.466;2024-02-16T23:23:30;102358.09;;;9.57;100.00
66273;BME280;58450;52.150;4.466;2024-02-16T23:25:59;102357.94;;;9.59;100.00
66273;BME280;58450;52.150;4.466;2024-02-16T23:28:26;102360.91;;;9.56;100.00
66273;BME280;58450;52.150;4.466;2024-02-16T23:30:53;102361.63;;;9.58;100.00
66273;BME280;58450;52.150;4.466;2024-02-16T23:33:20;102374.22;;;9.57;100.00
66273;BME280;58450;52.150;4.466;2024-02-16T23:35:48;102383.81;;;9.60;100.00
66273;BME280;58450;52.150;4.466;2024-02-16T23:38:15;102381.00;;;9.52;100.00
66273;BME280;58450;52.150;4.466;2024-02-16T23:40:43;102376.06;;;9.57;100.00
66273;BME280;58450;52.150;4.466;2024-02-16T23:43:14;102376.47;;;9.62;100.00
66273;BME280;58450;52.150;4.466;2024-02-16T23:45:41;102384.97;;;9.57;100.00
66273;BME280;58450;52.150;4.466;2024-02-16T23:48:08;102383.56;;;9.53;100.00
66273;BME280;58450;52.150;4.466;2024-02-16T23:50:36;102385.25;;;9.54;100.00
66273;BME280;58450;52.150;4.466;2024-02-16T23:53:03;102395.84;;;9.56;100.00
66273;BME280;58450;52.150;4.466;2024-02-16T23:55:30;102394.16;;;9.55;100.00
66273;BME280;58450;52.150;4.466;2024-02-16T23:57:57;102400.69;;;9.52;100.00
